Time;durP1;ratioP1;P1;durP2;ratioP2;P2;SDS_P1;SDS_P2;PMS_P1;PMS_P2;Temp;Humidity;BMP_temperature;BMP_pressure;BME280_temperature;BME280_humidity;BME280_pressure;Samples;Min_cycle;Max_cycle;Signal;HPM_P1;HPM_P2
2023/04/27 00:01:41;;;;;;;9.00;5.18;;;;;;;;;;5037424;28;20494;-57
2023/04/27 00:04:08;;;;;;;7.80;5.10;;;;;;;;;;5044032;28;20036;-57
2023/04/27 00:06:34;;;;;;;10.30;5.18;;;;;;;;;;5041528;28;20041;-56
2023/04/27 00:09:00;;;;;;;7.40;4.93;;;;;;;;;;5033612;28;20403;-57
2023/04/27 00:11:26;;;;;;;8.60;5.25;;;;;;;;;;5037498;28;20036;-56
2023/04/27 00:13:52;;;;;;;11.15;5.43;;;;;;;;;;5040749;28;20056;-57
2023/04/27 00:16:19;;;;;;;9.55;5.70;;;;;;;;;;5039768;28;20033;-57
2023/04/27 00:18:45;;;;;;;10.63;4.82;;;;;;;;;;5043947;28;20400;-56
2023/04/27 00:21:11;;;;;;;7.95;5.15;;;;;;;;;;5049280;28;20055;-56
2023/04/27 00:23:37;;;;;;;10.20;5.60;;;;;;;;;;5041465;28;20041;-56
2023/04/27 00:26:04;;;;;;;12.45;5.57;;;;;;;;;;5038940;28;20048;-58
2023/04/27 00:28:39;;;;;;;9.43;5.43;;;;;;;;;;5042341;28;20028;-56
2023/04/27 00:31:06;;;;;;;11.02;5.63;;;;;;;;;;5043459;28;20051;-56
2023/04/27 00:33:32;;;;;;;10.23;5.53;;;;;;;;;;5042710;28;20037;-56
2023/04/27 00:36:00;;;;;;;12.57;5.90;;;;;;;;;;5042717;28;20033;-56
2023/04/27 00:38:27;;;;;;;8.27;6.05;;;;;;;;;;5051287;28;20036;-56
2023/04/27 00:41:01;;;;;;;9.75;5.40;;;;;;;;;;5027234;28;20402;-56
2023/04/27 00:43:27;;;;;;;10.00;6.15;;;;;;;;;;5040165;28;20033;-56
2023/04/27 00:45:54;;;;;;;10.65;5.88;;;;;;;;;;5036678;28;20061;-57
2023/04/27 00:48:20;;;;;;;10.75;5.20;;;;;;;;;;5050543;28;20064;-57
2023/04/27 00:50:47;;;;;;;8.52;5.38;;;;;;;;;;5043640;28;20519;-57
2023/04/27 00:53:13;;;;;;;10.60;5.80;;;;;;;;;;5041751;28;20045;-57
2023/04/27 00:55:41;;;;;;;9.70;5.50;;;;;;;;;;5042804;28;20048;-57
2023/04/27 00:58:07;;;;;;;8.02;5.70;;;;;;;;;;5045142;28;20028;-57
2023/04/27 01:00:38;;;;;;;12.05;5.40;;;;;;;;;;5039195;28;20037;-58
2023/04/27 01:03:06;;;;;;;9.35;5.50;;;;;;;;;;5042525;28;20052;-57
2023/04/27 01:05:33;;;;;;;11.48;5.85;;;;;;;;;;5040475;28;20045;-56
2023/04/27 01:07:59;;;;;;;7.35;5.10;;;;;;;;;;5030991;28;20498;-57
2023/04/27 01:10:27;;;;;;;9.05;5.32;;;;;;;;;;5021634;28;20494;-56
2023/04/27 01:12:53;;;;;;;10.18;4.88;;;;;;;;;;5042841;28;20031;-57
2023/04/27 01:15:19;;;;;;;11.48;5.25;;;;;;;;;;5037847;28;20320;-57
2023/04/27 01:17:48;;;;;;;11.43;5.57;;;;;;;;;;5048129;28;20025;-56
2023/04/27 01:20:14;;;;;;;10.02;6.30;;;;;;;;;;5038295;28;20028;-56
2023/04/27 01:22:45;;;;;;;9.52;5.47;;;;;;;;;;5042679;28;20045;-57
2023/04/27 01:25:11;;;;;;;8.30;5.20;;;;;;;;;;5041381;28;20044;-56
2023/04/27 01:27:38;;;;;;;9.23;5.28;;;;;;;;;;5039528;28;20052;-57
2023/04/27 01:30:05;;;;;;;10.32;6.15;;;;;;;;;;5039409;28;20041;-57
2023/04/27 01:32:38;;;;;;;8.98;5.00;;;;;;;;;;5042814;28;20045;-61
2023/04/27 01:35:10;;;;;;;9.10;5.38;;;;;;;;;;5037031;28;20056;-57
2023/04/27 01:37:36;;;;;;;9.75;5.78;;;;;;;;;;5039399;28;20403;-57
2023/04/27 01:40:05;;;;;;;8.52;5.90;;;;;;;;;;5042206;28;20049;-57
2023/04/27 01:42:31;;;;;;;10.07;5.32;;;;;;;;;;5040855;28;20026;-57
2023/04/27 01:44:59;;;;;;;11.77;5.57;;;;;;;;;;5041274;28;20411;-56
2023/04/27 01:47:26;;;;;;;10.25;5.15;;;;;;;;;;5047479;28;20025;-56
2023/04/27 01:49:52;;;;;;;12.50;5.13;;;;;;;;;;5040538;28;20044;-56
2023/04/27 01:52:18;;;;;;;10.68;5.25;;;;;;;;;;5040300;28;20047;-56
2023/04/27 01:54:45;;;;;;;8.18;5.40;;;;;;;;;;5045943;28;20037;-57
2023/04/27 01:57:11;;;;;;;9.63;5.22;;;;;;;;;;5035276;28;20051;-57
2023/04/27 01:59:38;;;;;;;12.30;5.40;;;;;;;;;;5041242;28;20414;-58
2023/04/27 02:02:04;;;;;;;10.73;5.03;;;;;;;;;;5040581;28;20032;-56
2023/04/27 02:04:30;;;;;;;8.93;4.90;;;;;;;;;;5023394;28;20040;-56
2023/04/27 02:06:57;;;;;;;10.48;4.75;;;;;;;;;;5031738;28;20065;-57
2023/04/27 02:09:23;;;;;;;9.40;5.13;;;;;;;;;;5038783;28;20035;-58
2023/04/27 02:11:50;;;;;;;9.45;5.28;;;;;;;;;;5037608;28;20045;-56
2023/04/27 02:14:16;;;;;;;7.90;5.30;;;;;;;;;;5038128;28;20609;-57
2023/04/27 02:16:42;;;;;;;12.48;5.82;;;;;;;;;;5034742;28;20045;-57
2023/04/27 02:19:08;;;;;;;6.97;4.88;;;;;;;;;;5049192;28;20037;-57
2023/04/27 02:21:35;;;;;;;10.38;5.70;;;;;;;;;;5042212;28;20041;-57
2023/04/27 02:24:01;;;;;;;9.38;5.20;;;;;;;;;;5041720;28;20045;-57
2023/04/27 02:26:28;;;;;;;10.25;5.47;;;;;;;;;;5037531;28;20499;-56
2023/04/27 02:28:55;;;;;;;11.60;5.57;;;;;;;;;;5047923;28;20045;-56
2023/04/27 02:31:22;;;;;;;9.48;5.50;;;;;;;;;;5045621;28;20049;-57
2023/04/27 02:33:48;;;;;;;9.32;5.70;;;;;;;;;;5040193;28;20782;-56
2023/04/27 02:36:14;;;;;;;7.68;4.85;;;;;;;;;;5038551;28;20044;-57
2023/04/27 02:38:40;;;;;;;12.68;5.95;;;;;;;;;;5044330;28;20529;-57
2023/04/27 02:41:06;;;;;;;10.82;5.60;;;;;;;;;;5043023;28;20048;-57
2023/04/27 02:43:33;;;;;;;10.02;5.75;;;;;;;;;;5042585;28;20037;-57
2023/04/27 02:46:03;;;;;;;9.52;5.43;;;;;;;;;;5042095;28;20049;-57
2023/04/27 02:48:30;;;;;;;9.00;5.03;;;;;;;;;;5037308;28;20438;-57
2023/04/27 02:50:56;;;;;;;7.85;5.25;;;;;;;;;;5034126;28;20037;-57
2023/04/27 02:53:22;;;;;;;11.35;5.75;;;;;;;;;;5040200;28;20072;-56
2023/04/27 02:55:49;;;;;;;10.60;5.68;;;;;;;;;;5033835;28;20045;-57
2023/04/27 02:58:16;;;;;;;9.65;5.15;;;;;;;;;;5039504;28;20030;-57
2023/04/27 03:00:42;;;;;;;12.35;5.18;;;;;;;;;;5039249;28;20388;-56
2023/04/27 03:03:09;;;;;;;9.90;5.45;;;;;;;;;;5034907;28;20059;-57
2023/04/27 03:05:36;;;;;;;13.02;5.47;;;;;;;;;;5017677;28;20495;-57
2023/04/27 03:08:02;;;;;;;10.82;5.50;;;;;;;;;;5037507;28;20510;-57
2023/04/27 03:10:29;;;;;;;12.68;5.57;;;;;;;;;;5044675;28;20049;-57
2023/04/27 03:12:55;;;;;;;10.10;5.70;;;;;;;;;;5036558;28;20545;-58
2023/04/27 03:15:21;;;;;;;8.65;5.78;;;;;;;;;;5044767;28;20430;-58
2023/04/27 03:17:47;;;;;;;11.80;5.88;;;;;;;;;;5042951;28;20479;-58
2023/04/27 03:20:14;;;;;;;13.00;5.82;;;;;;;;;;5038382;28;20037;-58
2023/04/27 03:22:40;;;;;;;11.82;5.85;;;;;;;;;;5042214;28;20064;-58
2023/04/27 03:25:07;;;;;;;10.75;5.40;;;;;;;;;;5042015;28;20037;-56
2023/04/27 03:27:33;;;;;;;11.38;5.75;;;;;;;;;;5042544;28;20036;-56
2023/04/27 03:29:59;;;;;;;11.35;5.93;;;;;;;;;;5041429;28;20049;-57
2023/04/27 03:32:25;;;;;;;11.75;6.82;;;;;;;;;;5037152;28;20035;-57
2023/04/27 03:34:52;;;;;;;10.00;5.82;;;;;;;;;;5033800;28;20038;-57
2023/04/27 03:37:18;;;;;;;14.65;6.28;;;;;;;;;;5045057;28;20044;-57
2023/04/27 03:39:44;;;;;;;10.20;6.22;;;;;;;;;;5049014;28;20502;-57
2023/04/27 03:42:10;;;;;;;8.25;5.28;;;;;;;;;;5035663;28;20108;-57
2023/04/27 03:44:36;;;;;;;10.63;5.90;;;;;;;;;;5043683;28;20423;-57
2023/04/27 03:47:07;;;;;;;13.52;5.90;;;;;;;;;;5033986;28;20045;-57
2023/04/27 03:49:35;;;;;;;8.73;5.93;;;;;;;;;;5039522;28;20052;-57
2023/04/27 03:52:02;;;;;;;9.38;5.80;;;;;;;;;;5040171;28;20044;-57
2023/04/27 03:54:30;;;;;;;11.40;6.25;;;;;;;;;;5045235;28;20045;-57
2023/04/27 03:56:57;;;;;;;13.23;5.97;;;;;;;;;;5044145;28;20040;-57
2023/04/27 03:59:23;;;;;;;14.52;7.13;;;;;;;;;;5040562;28;20053;-57
2023/04/27 04:01:49;;;;;;;18.25;6.10;;;;;;;;;;5040189;28;20064;-56
2023/04/27 04:04:15;;;;;;;12.80;6.03;;;;;;;;;;5040296;28;20080;-57
2023/04/27 04:06:41;;;;;;;15.32;6.90;;;;;;;;;;5041954;28;20026;-57
2023/04/27 04:09:08;;;;;;;10.45;6.25;;;;;;;;;;5040052;28;20041;-57
2023/04/27 04:11:34;;;;;;;15.23;6.38;;;;;;;;;;5043100;28;20041;-57
2023/04/27 04:14:04;;;;;;;;;;;;;;;;;;5039164;28;20052;-57
2023/04/27 04:16:32;;;;;;;16.45;7.88;;;;;;;;;;5041060;28;19919;-56
2023/04/27 04:18:58;;;;;;;17.38;8.68;;;;;;;;;;5041874;28;20040;-56
2023/04/27 04:21:25;;;;;;;12.57;6.15;;;;;;;;;;5039957;28;20040;-57
2023/04/27 04:23:51;;;;;;;12.95;6.80;;;;;;;;;;5045990;28;20040;-58
2023/04/27 04:26:19;;;;;;;12.05;6.90;;;;;;;;;;5041108;28;20041;-57
2023/04/27 04:28:45;;;;;;;15.00;7.60;;;;;;;;;;5039909;28;20044;-57
2023/04/27 04:31:12;;;;;;;20.70;9.00;;;;;;;;;;5041939;28;20034;-57
2023/04/27 04:33:38;;;;;;;13.07;6.45;;;;;;;;;;5050671;28;20045;-57
2023/04/27 04:36:05;;;;;;;13.90;6.68;;;;;;;;;;5050569;28;20044;-58
2023/04/27 04:38:32;;;;;;;15.00;7.00;;;;;;;;;;5053893;28;20033;-58
2023/04/27 04:40:59;;;;;;;14.65;7.13;;;;;;;;;;5051053;28;20036;-57
2023/04/27 04:43:26;;;;;;;16.33;6.63;;;;;;;;;;5041764;28;20402;-57
2023/04/27 04:45:52;;;;;;;13.25;6.80;;;;;;;;;;5047975;28;20402;-57
2023/04/27 04:48:19;;;;;;;19.75;7.00;;;;;;;;;;5044352;28;20030;-57
2023/04/27 04:50:45;;;;;;;12.43;7.10;;;;;;;;;;5044128;28;20029;-58
2023/04/27 04:53:12;;;;;;;15.95;7.20;;;;;;;;;;5042963;28;20029;-56
2023/04/27 04:55:39;;;;;;;19.02;8.40;;;;;;;;;;5040760;28;20045;-59
2023/04/27 04:58:07;;;;;;;15.98;9.10;;;;;;;;;;5040777;28;20045;-58
2023/04/27 05:00:34;;;;;;;18.25;9.05;;;;;;;;;;5038303;28;20052;-58
2023/04/27 05:03:00;;;;;;;15.38;7.35;;;;;;;;;;5045066;28;20049;-58
2023/04/27 05:05:26;;;;;;;25.90;8.88;;;;;;;;;;5041644;28;20399;-58
2023/04/27 05:07:52;;;;;;;14.80;7.93;;;;;;;;;;5045135;28;20056;-58
2023/04/27 05:10:18;;;;;;;17.02;7.82;;;;;;;;;;5036968;28;20033;-58
2023/04/27 05:12:44;;;;;;;16.33;7.40;;;;;;;;;;5045154;28;20037;-58
2023/04/27 05:15:11;;;;;;;14.48;7.50;;;;;;;;;;5040652;28;20048;-58
2023/04/27 05:17:37;;;;;;;15.75;8.25;;;;;;;;;;5036960;28;20491;-57
2023/04/27 05:20:03;;;;;;;22.02;7.90;;;;;;;;;;5037372;28;20351;-57
2023/04/27 05:22:29;;;;;;;12.88;7.45;;;;;;;;;;5038443;28;20034;-58
2023/04/27 05:24:56;;;;;;;17.58;7.95;;;;;;;;;;5038434;28;20407;-58
2023/04/27 05:27:23;;;;;;;15.45;8.15;;;;;;;;;;5040262;28;20041;-58
2023/04/27 05:29:49;;;;;;;16.05;8.55;;;;;;;;;;5038951;28;20041;-58
2023/04/27 05:32:15;;;;;;;13.60;8.18;;;;;;;;;;5041010;28;20025;-58
2023/04/27 05:34:43;;;;;;;16.23;8.73;;;;;;;;;;5044977;28;20044;-58
2023/04/27 05:37:10;;;;;;;15.30;8.02;;;;;;;;;;5043755;28;20105;-58
2023/04/27 05:39:36;;;;;;;16.88;8.35;;;;;;;;;;5039034;28;20663;-58
2023/04/27 05:42:03;;;;;;;16.40;9.02;;;;;;;;;;5035897;28;20456;-58
2023/04/27 05:44:29;;;;;;;16.88;8.18;;;;;;;;;;5036723;28;20044;-58
2023/04/27 05:46:55;;;;;;;19.30;8.63;;;;;;;;;;5033762;28;20033;-58
2023/04/27 05:49:22;;;;;;;19.98;9.05;;;;;;;;;;5035609;28;20033;-58
2023/04/27 05:51:48;;;;;;;25.10;10.35;;;;;;;;;;5045360;28;20049;-58
2023/04/27 05:54:15;;;;;;;22.48;10.98;;;;;;;;;;5037163;28;20056;-58
2023/04/27 05:56:41;;;;;;;29.75;11.50;;;;;;;;;;5036758;28;20038;-58
2023/04/27 05:59:07;;;;;;;23.98;12.25;;;;;;;;;;5038540;28;20033;-58
2023/04/27 06:01:33;;;;;;;24.98;11.25;;;;;;;;;;5039705;28;20033;-59
2023/04/27 06:04:00;;;;;;;26.38;12.73;;;;;;;;;;5041692;28;20049;-58
2023/04/27 06:06:27;;;;;;;26.65;12.98;;;;;;;;;;5037164;28;20408;-59
2023/04/27 06:08:53;;;;;;;32.17;14.57;;;;;;;;;;5042797;28;20049;-59
2023/04/27 06:11:19;;;;;;;35.83;16.52;;;;;;;;;;5045401;28;20375;-58
2023/04/27 06:13:46;;;;;;;37.15;16.70;;;;;;;;;;5044512;28;20041;-58
2023/04/27 06:16:12;;;;;;;35.63;16.77;;;;;;;;;;5039802;28;20045;-58
2023/04/27 06:18:39;;;;;;;41.55;19.27;;;;;;;;;;5042318;28;20032;-58
2023/04/27 06:21:05;;;;;;;54.10;21.50;;;;;;;;;;5040495;28;20227;-58
2023/04/27 06:23:32;;;;;;;48.92;19.85;;;;;;;;;;5035199;28;20072;-59
2023/04/27 06:25:58;;;;;;;45.50;18.50;;;;;;;;;;5042137;28;20414;-58
2023/04/27 06:28:24;;;;;;;47.05;18.38;;;;;;;;;;5043017;28;20045;-59
2023/04/27 06:30:51;;;;;;;37.33;17.77;;;;;;;;;;5036342;28;20032;-59
2023/04/27 06:33:18;;;;;;;42.55;18.38;;;;;;;;;;5046893;28;20394;-58
2023/04/27 06:35:44;;;;;;;39.08;17.77;;;;;;;;;;5041646;28;20534;-59
2023/04/27 06:38:10;;;;;;;41.75;18.60;;;;;;;;;;5039712;28;20041;-59
2023/04/27 06:40:36;;;;;;;41.97;18.92;;;;;;;;;;5035637;28;20046;-58
2023/04/27 06:43:03;;;;;;;38.45;17.38;;;;;;;;;;5043592;28;20048;-58
2023/04/27 06:45:29;;;;;;;38.05;16.25;;;;;;;;;;5044743;28;20029;-58
2023/04/27 06:47:56;;;;;;;36.58;16.23;;;;;;;;;;5045458;28;20029;-57
2023/04/27 06:50:22;;;;;;;33.28;14.73;;;;;;;;;;5040526;28;20049;-57
2023/04/27 06:52:48;;;;;;;34.28;15.05;;;;;;;;;;5038586;28;20418;-57
2023/04/27 06:55:14;;;;;;;30.40;15.07;;;;;;;;;;5045916;28;20044;-58
2023/04/27 06:57:40;;;;;;;27.70;13.20;;;;;;;;;;5041579;28;20045;-58
2023/04/27 07:00:07;;;;;;;29.35;13.45;;;;;;;;;;5022004;28;20514;-57
2023/04/27 07:02:34;;;;;;;25.73;12.25;;;;;;;;;;5037348;28;20029;-57
2023/04/27 07:05:00;;;;;;;28.20;13.05;;;;;;;;;;5035672;28;20056;-57
2023/04/27 07:07:26;;;;;;;25.30;13.35;;;;;;;;;;5033972;28;20045;-57
2023/04/27 07:09:52;;;;;;;26.30;12.15;;;;;;;;;;5034206;28;20060;-58
2023/04/27 07:12:18;;;;;;;24.67;11.20;;;;;;;;;;5038228;28;20029;-57
2023/04/27 07:14:45;;;;;;;25.10;11.57;;;;;;;;;;5036168;28;20067;-57
2023/04/27 07:17:11;;;;;;;20.75;10.20;;;;;;;;;;5036304;28;20049;-57
2023/04/27 07:19:37;;;;;;;23.35;10.27;;;;;;;;;;5040801;28;20044;-58
2023/04/27 07:22:03;;;;;;;17.35;9.98;;;;;;;;;;5038186;28;20041;-58
2023/04/27 07:24:30;;;;;;;18.65;9.10;;;;;;;;;;5044812;28;20053;-59
2023/04/27 07:26:58;;;;;;;22.80;10.73;;;;;;;;;;5045333;28;20040;-58
2023/04/27 07:29:26;;;;;;;21.15;9.57;;;;;;;;;;5042423;28;20066;-58
2023/04/27 07:31:54;;;;;;;21.07;9.90;;;;;;;;;;5037491;28;20041;-58
2023/04/27 07:34:20;;;;;;;24.52;10.25;;;;;;;;;;5050408;28;21163;-57
2023/04/27 07:36:47;;;;;;;23.00;10.25;;;;;;;;;;5047782;28;20037;-57
2023/04/27 07:39:13;;;;;;;21.98;10.35;;;;;;;;;;5053273;28;20041;-57
2023/04/27 07:41:40;;;;;;;17.95;9.05;;;;;;;;;;5045740;28;20059;-57
2023/04/27 07:44:06;;;;;;;19.02;9.40;;;;;;;;;;5052416;28;20040;-58
2023/04/27 07:46:32;;;;;;;22.73;9.40;;;;;;;;;;5043780;28;20049;-58
2023/04/27 07:48:58;;;;;;;19.42;8.93;;;;;;;;;;5041940;28;20052;-58
2023/04/27 07:51:27;;;;;;;19.90;9.20;;;;;;;;;;5041375;28;20046;-59
2023/04/27 07:53:54;;;;;;;17.83;7.90;;;;;;;;;;5044312;28;20049;-58
2023/04/27 07:56:20;;;;;;;21.63;8.18;;;;;;;;;;5042966;28;20089;-58
2023/04/27 07:58:47;;;;;;;15.93;7.47;;;;;;;;;;5040542;28;20426;-58
2023/04/27 08:01:13;;;;;;;14.57;8.10;;;;;;;;;;5044155;28;20029;-59
2023/04/27 08:03:39;;;;;;;15.57;7.40;;;;;;;;;;5039843;28;20040;-58
2023/04/27 08:06:05;;;;;;;20.25;9.02;;;;;;;;;;5036918;28;20029;-57
2023/04/27 08:08:32;;;;;;;15.82;8.60;;;;;;;;;;5042916;28;20054;-58
2023/04/27 08:10:58;;;;;;;14.63;8.45;;;;;;;;;;5043920;28;20037;-58
2023/04/27 08:13:24;;;;;;;12.15;7.05;;;;;;;;;;5043190;28;20061;-58
2023/04/27 08:15:53;;;;;;;13.65;6.95;;;;;;;;;;5042546;28;20060;-57
2023/04/27 08:18:20;;;;;;;14.90;7.35;;;;;;;;;;5040841;28;20418;-58
2023/04/27 08:20:46;;;;;;;13.18;7.55;;;;;;;;;;5042590;28;20029;-58
2023/04/27 08:23:12;;;;;;;12.38;7.20;;;;;;;;;;5041855;28;20525;-58
2023/04/27 08:25:39;;;;;;;12.23;6.60;;;;;;;;;;5036484;28;20037;-58
2023/04/27 08:28:05;;;;;;;12.48;7.32;;;;;;;;;;5034422;28;20446;-58
2023/04/27 08:30:31;;;;;;;16.05;8.63;;;;;;;;;;5040857;28;20210;-58
2023/04/27 08:32:57;;;;;;;14.98;7.50;;;;;;;;;;5051618;28;20067;-58
2023/04/27 08:35:23;;;;;;;14.60;7.53;;;;;;;;;;5043212;28;20380;-58
2023/04/27 08:37:50;;;;;;;15.55;7.00;;;;;;;;;;5038022;28;20037;-58
2023/04/27 08:40:16;;;;;;;12.77;7.45;;;;;;;;;;5043504;28;20037;-58
2023/04/27 08:42:54;;;;;;;14.13;6.65;;;;;;;;;;5042724;28;20474;-58
2023/04/27 08:45:22;;;;;;;14.03;6.40;;;;;;;;;;5039370;28;20028;-58
2023/04/27 08:47:49;;;;;;;11.77;7.00;;;;;;;;;;5044941;28;20042;-58
2023/04/27 08:50:16;;;;;;;12.85;6.60;;;;;;;;;;5038647;28;20029;-58
2023/04/27 08:52:46;;;;;;;14.68;6.10;;;;;;;;;;5047018;28;20115;-58
2023/04/27 08:55:13;;;;;;;13.75;6.80;;;;;;;;;;5037214;28;20053;-58
2023/04/27 08:57:39;;;;;;;9.68;6.25;;;;;;;;;;5035078;28;20040;-58
2023/04/27 09:00:13;;;;;;;16.17;7.45;;;;;;;;;;5042078;28;20332;-58
2023/04/27 09:02:46;;;;;;;13.18;6.60;;;;;;;;;;5041870;28;20055;-59
2023/04/27 09:05:20;;;;;;;11.40;6.47;;;;;;;;;;5041087;28;20038;-58
2023/04/27 09:07:56;;;;;;;10.85;6.60;;;;;;;;;;5039122;28;20049;-58
2023/04/27 09:10:22;;;;;;;9.43;5.88;;;;;;;;;;5043923;28;20048;-59
2023/04/27 09:12:55;;;;;;;12.35;6.63;;;;;;;;;;5041430;28;20032;-58
2023/04/27 09:15:22;;;;;;;12.60;6.43;;;;;;;;;;5039250;28;20041;-59
2023/04/27 09:17:56;;;;;;;12.43;7.10;;;;;;;;;;5043439;28;20052;-58
2023/04/27 09:20:23;;;;;;;10.40;6.13;;;;;;;;;;5040198;28;20041;-59
2023/04/27 09:22:54;;;;;;;11.90;6.13;;;;;;;;;;5044876;28;20045;-58
2023/04/27 09:25:28;;;;;;;12.50;6.15;;;;;;;;;;5043696;28;20033;-59
2023/04/27 09:27:56;;;;;;;11.52;6.30;;;;;;;;;;5043557;28;20051;-59
2023/04/27 09:30:23;;;;;;;13.90;6.35;;;;;;;;;;5047836;28;20427;-59
2023/04/27 09:32:51;;;;;;;14.02;6.22;;;;;;;;;;5049757;28;20044;-59
2023/04/27 09:35:26;;;;;;;14.48;6.90;;;;;;;;;;5048181;28;20037;-59
2023/04/27 09:37:53;;;;;;;7.85;5.25;;;;;;;;;;5048233;28;20040;-59
2023/04/27 09:40:28;;;;;;;13.93;7.05;;;;;;;;;;5048167;28;20041;-59
2023/04/27 09:42:56;;;;;;;14.88;6.00;;;;;;;;;;5040484;28;20063;-59
2023/04/27 09:45:23;;;;;;;7.95;5.82;;;;;;;;;;5046690;28;20501;-59
2023/04/27 09:47:50;;;;;;;11.27;5.82;;;;;;;;;;5039942;28;20431;-60
2023/04/27 09:50:16;;;;;;;11.27;5.68;;;;;;;;;;5042214;28;20024;-60
2023/04/27 09:52:45;;;;;;;14.85;6.50;;;;;;;;;;5037155;28;20396;-60
2023/04/27 09:55:16;;;;;;;9.98;5.40;;;;;;;;;;5041855;28;20036;-60
2023/04/27 09:58:10;;;;;;;9.25;5.75;;;;;;;;;;5039379;28;20044;-61
2023/04/27 10:00:52;;;;;;;12.07;5.75;;;;;;;;;;5029045;28;20045;-58
2023/04/27 10:03:27;;;;;;;11.65;5.22;;;;;;;;;;5050783;28;20398;-58
2023/04/27 10:06:02;;;;;;;10.88;5.38;;;;;;;;;;5047579;28;20036;-59
2023/04/27 10:08:28;;;;;;;10.32;5.80;;;;;;;;;;5052216;28;20052;-58
2023/04/27 10:10:55;;;;;;;9.43;5.32;;;;;;;;;;5052404;28;20033;-59
2023/04/27 10:13:23;;;;;;;10.18;5.53;;;;;;;;;;5042527;28;20046;-60
2023/04/27 10:15:51;;;;;;;10.35;5.70;;;;;;;;;;5039658;28;20028;-59
2023/04/27 10:18:29;;;;;;;8.27;4.57;;;;;;;;;;5035958;28;20029;-59
2023/04/27 10:20:57;;;;;;;13.60;5.60;;;;;;;;;;5038844;28;20037;-59
2023/04/27 10:23:24;;;;;;;10.52;5.30;;;;;;;;;;5052717;28;20032;-59
2023/04/27 10:25:51;;;;;;;11.90;4.70;;;;;;;;;;5045068;28;20526;-59
2023/04/27 10:28:19;;;;;;;11.93;5.97;;;;;;;;;;5047033;28;20037;-59
2023/04/27 10:30:47;;;;;;;15.40;5.80;;;;;;;;;;5044797;28;20024;-59
2023/04/27 10:33:20;;;;;;;11.57;7.05;;;;;;;;;;5041955;28;20040;-59
2023/04/27 10:35:55;;;;;;;12.55;5.55;;;;;;;;;;5037541;28;20032;-58
2023/04/27 10:38:27;;;;;;;12.45;5.88;;;;;;;;;;5038137;28;20031;-59
2023/04/27 10:41:00;;;;;;;9.52;4.93;;;;;;;;;;5040504;28;20048;-59
2023/04/27 10:43:29;;;;;;;10.38;5.90;;;;;;;;;;5041603;28;20041;-59
2023/04/27 10:46:14;;;;;;;13.05;5.60;;;;;;;;;;5042407;28;20040;-59
2023/04/27 10:48:42;;;;;;;10.35;5.50;;;;;;;;;;5034886;28;20033;-59
2023/04/27 10:51:09;;;;;;;9.27;5.53;;;;;;;;;;5044307;28;20044;-58
2023/04/27 10:53:38;;;;;;;8.80;5.45;;;;;;;;;;5037973;28;20040;-58
2023/04/27 10:56:05;;;;;;;8.90;4.75;;;;;;;;;;5041754;28;20474;-60
2023/04/27 10:58:33;;;;;;;9.15;5.45;;;;;;;;;;5044997;28;20028;-58
2023/04/27 11:00:59;;;;;;;10.18;4.82;;;;;;;;;;5036620;28;20032;-60
2023/04/27 11:03:25;;;;;;;9.40;5.15;;;;;;;;;;5034344;28;20038;-59
2023/04/27 11:06:03;;;;;;;10.35;4.90;;;;;;;;;;5037979;28;20034;-60
2023/04/27 11:08:31;;;;;;;11.47;5.73;;;;;;;;;;5036697;28;20049;-59
2023/04/27 11:10:57;;;;;;;12.90;6.05;;;;;;;;;;5035689;28;20046;-61
2023/04/27 11:13:26;;;;;;;10.05;5.80;;;;;;;;;;5037637;28;20040;-60
2023/04/27 11:15:57;;;;;;;;;;;;;;;;;;5042635;28;20060;-60
2023/04/27 11:18:25;;;;;;;10.50;5.22;;;;;;;;;;5041415;28;19920;-59
2023/04/27 11:20:53;;;;;;;10.93;5.63;;;;;;;;;;5039476;28;20042;-59
2023/04/27 11:23:27;;;;;;;10.43;5.22;;;;;;;;;;5038530;28;20028;-59
2023/04/27 11:25:55;;;;;;;9.75;4.93;;;;;;;;;;5039958;28;20037;-60
2023/04/27 11:28:24;;;;;;;8.68;4.78;;;;;;;;;;5043600;28;20072;-60
2023/04/27 11:30:58;;;;;;;7.80;4.60;;;;;;;;;;5042959;28;20028;-59
2023/04/27 11:33:25;;;;;;;8.65;4.97;;;;;;;;;;5044642;28;20029;-59
2023/04/27 11:35:52;;;;;;;9.85;5.18;;;;;;;;;;5044258;28;20040;-59
2023/04/27 11:38:20;;;;;;;9.68;4.75;;;;;;;;;;5026703;28;20060;-60
2023/04/27 11:40:57;;;;;;;9.43;5.00;;;;;;;;;;5029862;28;20360;-59
2023/04/27 11:43:27;;;;;;;9.68;4.70;;;;;;;;;;5035186;28;20029;-60
2023/04/27 11:45:54;;;;;;;11.85;4.68;;;;;;;;;;5040082;28;20052;-60
2023/04/27 11:48:25;;;;;;;11.38;4.90;;;;;;;;;;5040581;28;20045;-60
2023/04/27 11:50:52;;;;;;;10.88;4.88;;;;;;;;;;5043268;28;20037;-59
2023/04/27 11:53:38;;;;;;;7.30;4.55;;;;;;;;;;5043775;28;20040;-59
2023/04/27 11:56:09;;;;;;;11.02;5.32;;;;;;;;;;5037267;28;20504;-59
2023/04/27 11:58:37;;;;;;;6.95;4.30;;;;;;;;;;5039076;28;20060;-59
2023/04/27 12:01:04;;;;;;;6.88;4.50;;;;;;;;;;5032233;28;20380;-59
2023/04/27 12:03:30;;;;;;;7.03;4.20;;;;;;;;;;5043178;28;20037;-59
2023/04/27 12:05:57;;;;;;;7.28;4.50;;;;;;;;;;5044418;28;20029;-60
2023/04/27 12:08:23;;;;;;;9.43;4.63;;;;;;;;;;5040055;28;20036;-60
2023/04/27 12:10:50;;;;;;;6.88;4.85;;;;;;;;;;5041795;28;20052;-60
2023/04/27 12:13:16;;;;;;;12.57;5.28;;;;;;;;;;5037412;28;20654;-60
2023/04/27 12:15:42;;;;;;;14.65;5.43;;;;;;;;;;5043066;28;20041;-60
2023/04/27 12:18:09;;;;;;;8.73;5.00;;;;;;;;;;5046471;28;20040;-60
2023/04/27 12:20:36;;;;;;;10.23;5.13;;;;;;;;;;5048205;28;20029;-60
2023/04/27 12:23:02;;;;;;;8.55;5.20;;;;;;;;;;5039527;28;20422;-61
2023/04/27 12:25:29;;;;;;;11.07;5.53;;;;;;;;;;5044934;28;20028;-60
2023/04/27 12:27:55;;;;;;;10.70;5.57;;;;;;;;;;5043730;28;20041;-60
2023/04/27 12:30:22;;;;;;;8.75;4.85;;;;;;;;;;5041422;28;20095;-60
2023/04/27 12:32:49;;;;;;;8.50;4.80;;;;;;;;;;5053327;28;20028;-60
2023/04/27 12:35:15;;;;;;;9.70;4.80;;;;;;;;;;5045587;28;20041;-60
2023/04/27 12:37:41;;;;;;;5.82;3.72;;;;;;;;;;5043502;28;20049;-60
2023/04/27 12:40:08;;;;;;;6.10;3.60;;;;;;;;;;5038203;28;20523;-60
2023/04/27 12:42:34;;;;;;;6.85;3.20;;;;;;;;;;5045133;28;20041;-60
2023/04/27 12:45:01;;;;;;;5.80;3.42;;;;;;;;;;5042112;28;20065;-60
2023/04/27 12:47:27;;;;;;;12.82;4.28;;;;;;;;;;5044194;28;20033;-60
2023/04/27 12:49:53;;;;;;;5.93;3.67;;;;;;;;;;5041237;28;20036;-60
2023/04/27 12:52:19;;;;;;;7.13;3.53;;;;;;;;;;5038217;28;20029;-60
2023/04/27 12:54:46;;;;;;;7.72;3.80;;;;;;;;;;5039095;28;20045;-60
2023/04/27 12:57:12;;;;;;;8.60;3.63;;;;;;;;;;5046202;28;20045;-59
2023/04/27 12:59:38;;;;;;;5.72;3.45;;;;;;;;;;5039909;28;20025;-60
2023/04/27 13:02:05;;;;;;;9.38;3.97;;;;;;;;;;5040882;28;20040;-59
2023/04/27 13:04:31;;;;;;;7.20;3.70;;;;;;;;;;5041661;28;20514;-59
2023/04/27 13:07:00;;;;;;;7.07;3.78;;;;;;;;;;5043701;28;20037;-60
2023/04/27 13:09:27;;;;;;;5.10;3.67;;;;;;;;;;5039413;28;20033;-60
2023/04/27 13:11:53;;;;;;;9.50;4.63;;;;;;;;;;5037403;28;20029;-60
2023/04/27 13:14:20;;;;;;;8.57;3.80;;;;;;;;;;5035691;28;20033;-60
2023/04/27 13:16:46;;;;;;;7.20;3.35;;;;;;;;;;5036449;28;21523;-60
2023/04/27 13:19:12;;;;;;;5.55;3.10;;;;;;;;;;5035322;28;20037;-60
2023/04/27 13:21:39;;;;;;;6.63;3.20;;;;;;;;;;5045198;28;20773;-60
2023/04/27 13:24:06;;;;;;;6.88;3.80;;;;;;;;;;5036288;28;20511;-60
2023/04/27 13:26:32;;;;;;;6.38;3.47;;;;;;;;;;5036492;28;20033;-62
2023/04/27 13:29:00;;;;;;;5.85;3.30;;;;;;;;;;5032251;28;20561;-60
2023/04/27 13:31:26;;;;;;;5.03;3.03;;;;;;;;;;5040766;28;20518;-60
2023/04/27 13:33:52;;;;;;;10.68;3.72;;;;;;;;;;5035543;28;20041;-59
2023/04/27 13:36:19;;;;;;;5.85;3.40;;;;;;;;;;5033412;28;20029;-60
2023/04/27 13:38:45;;;;;;;7.47;3.85;;;;;;;;;;5033952;28;20553;-60
2023/04/27 13:41:11;;;;;;;7.88;3.80;;;;;;;;;;5039710;28;20033;-61
2023/04/27 13:43:37;;;;;;;9.10;3.95;;;;;;;;;;5030997;28;20412;-60
2023/04/27 13:46:04;;;;;;;6.15;3.30;;;;;;;;;;5037980;28;20037;-61
2023/04/27 13:48:30;;;;;;;8.25;3.92;;;;;;;;;;5040942;28;20041;-60
2023/04/27 13:50:57;;;;;;;5.60;3.67;;;;;;;;;;5032856;28;20037;-60
2023/04/27 13:53:26;;;;;;;7.32;3.30;;;;;;;;;;5043311;28;20037;-60
2023/04/27 13:55:56;;;;;;;9.10;3.53;;;;;;;;;;5047675;28;20043;-60
2023/04/27 13:58:24;;;;;;;7.95;4.22;;;;;;;;;;5049390;28;20053;-61
2023/04/27 14:00:51;;;;;;;7.10;4.20;;;;;;;;;;5039344;28;20388;-61
2023/04/27 14:03:17;;;;;;;7.25;4.18;;;;;;;;;;5037371;28;20048;-58
2023/04/27 14:05:44;;;;;;;9.00;4.13;;;;;;;;;;5042082;28;20040;-61
2023/04/27 14:08:10;;;;;;;6.78;4.22;;;;;;;;;;5044708;28;20407;-60
2023/04/27 14:10:37;;;;;;;9.10;3.47;;;;;;;;;;5037127;28;20487;-60
2023/04/27 14:13:03;;;;;;;6.93;3.83;;;;;;;;;;5041965;28;20040;-60
2023/04/27 14:15:30;;;;;;;11.55;4.20;;;;;;;;;;5037327;28;20045;-59
2023/04/27 14:17:56;;;;;;;7.63;4.10;;;;;;;;;;5037021;28;20044;-58
2023/04/27 14:20:23;;;;;;;6.10;3.42;;;;;;;;;;5036923;28;20099;-58
2023/04/27 14:22:49;;;;;;;5.55;3.33;;;;;;;;;;5045564;28;20037;-58
2023/04/27 14:25:15;;;;;;;12.40;4.40;;;;;;;;;;5042899;28;20040;-58
2023/04/27 14:27:41;;;;;;;6.93;4.20;;;;;;;;;;5042626;28;20380;-58
2023/04/27 14:30:08;;;;;;;9.85;4.70;;;;;;;;;;5040437;28;20060;-58
2023/04/27 14:32:35;;;;;;;6.47;3.72;;;;;;;;;;5037688;28;20041;-58
2023/04/27 14:35:01;;;;;;;8.38;3.97;;;;;;;;;;5040041;28;20478;-58